createdAt,value
2023-01-29T00:07:48.392Z,102846.06
2023-01-29T00:17:49.714Z,102826.00
2023-01-29T00:27:51.018Z,102812.06
2023-01-29T00:37:52.277Z,102817.31
2023-01-29T00:47:53.666Z,102804.22
2023-01-29T00:57:54.932Z,102785.94
2023-01-29T01:07:56.195Z,102771.94
2023-01-29T01:17:57.481Z,102783.31
2023-01-29T01:37:59.751Z,102781.53
2023-01-29T01:48:01.003Z,102777.16
2023-01-29T01:58:02.260Z,102781.50
2023-01-29T02:08:03.522Z,102788.50
2023-01-29T02:18:04.769Z,102784.13
2023-01-29T02:28:06.034Z,102795.47
2023-01-29T02:38:07.321Z,102799.78
2023-01-29T02:48:08.616Z,102789.31
2023-01-29T02:58:09.854Z,102777.97
2023-01-29T03:08:11.109Z,102785.81
2023-01-29T03:18:12.353Z,102783.19
2023-01-29T03:28:13.635Z,102784.94
2023-01-29T03:38:14.884Z,102771.00
2023-01-29T03:48:16.136Z,102772.72
2023-01-29T03:58:17.375Z,102762.25
2023-01-29T04:08:18.666Z,102753.50
2023-01-29T04:18:19.982Z,102743.03
2023-01-29T04:28:21.243Z,102724.75
2023-01-29T04:38:22.527Z,102738.69
2023-01-29T04:48:23.825Z,102719.47
2023-01-29T04:58:25.083Z,102689.81
2023-01-29T05:08:26.344Z,102691.59
2023-01-29T05:18:27.598Z,102687.22
2023-01-29T05:28:28.881Z,102665.41
2023-01-29T05:38:30.113Z,102654.94
2023-01-29T05:48:31.432Z,102654.94
2023-01-29T05:58:32.665Z,102675.88
2023-01-29T06:08:33.931Z,102673.19
2023-01-29T06:18:35.228Z,102682.81
2023-01-29T06:28:36.452Z,102711.53
2023-01-29T06:38:37.709Z,102661.84
2023-01-29T06:48:38.962Z,102671.41
2023-01-29T06:58:40.215Z,102650.47
2023-01-29T07:08:41.440Z,102646.97
2023-01-29T07:18:42.761Z,102652.16
2023-01-29T07:28:44.108Z,102661.78
2023-01-29T07:38:45.377Z,102645.19
2023-01-29T07:48:46.704Z,102646.06
2023-01-29T07:58:47.957Z,102662.63
2023-01-29T08:08:49.241Z,102653.09
2023-01-29T08:18:50.557Z,102645.25
2023-01-29T08:28:51.794Z,102640.00
2023-01-29T08:38:53.077Z,102622.59
2023-01-29T08:48:54.325Z,102602.53
2023-01-29T08:58:58.371Z,102607.63
2023-01-29T09:09:00.453Z,102615.50
2023-01-29T09:19:01.664Z,102605.09
2023-01-29T09:29:02.936Z,102602.47
2023-01-29T09:39:04.336Z,102598.94
2023-01-29T09:49:05.633Z,102583.25
2023-01-29T09:59:07.138Z,102592.81
2023-01-29T10:09:08.498Z,102598.19
2023-01-29T10:19:09.784Z,102600.00
2023-01-29T10:39:33.877Z,102586.06
2023-01-29T10:49:35.237Z,102577.34
2023-01-29T10:59:36.500Z,102569.50
2023-01-29T11:09:37.967Z,102545.00
2023-01-29T11:19:39.343Z,102533.69
2023-01-29T11:29:40.619Z,102508.44
2023-01-29T11:39:41.915Z,102489.19
2023-01-29T11:49:43.212Z,102466.53
2023-01-29T11:59:44.563Z,102437.78
2023-01-29T12:09:45.865Z,102412.50
2023-01-29T12:19:47.138Z,102401.22
2023-01-29T12:29:48.435Z,102390.75
2023-01-29T12:50:18.975Z,102360.31
2023-01-29T13:00:20.784Z,102344.56
2023-01-29T13:10:22.181Z,102326.38
2023-01-29T13:20:23.450Z,102328.13
2023-01-29T13:30:24.907Z,102311.59
2023-01-29T13:40:26.262Z,102291.50
2023-01-29T13:50:27.679Z,102280.22
2023-01-29T14:00:29.073Z,102281.09
2023-01-29T14:10:38.536Z,102270.69
2023-01-29T14:20:46.454Z,102259.38
2023-01-29T14:30:52.844Z,102252.41
2023-01-29T14:41:00.629Z,102243.69
2023-01-29T14:51:09.752Z,102235.84
2023-01-29T15:01:20.368Z,102234.19
2023-01-29T15:11:28.692Z,102226.34
2023-01-29T15:21:33.455Z,102213.28
2023-01-29T15:31:41.896Z,102202.88
2023-01-29T15:41:50.147Z,102192.47
2023-01-29T15:51:57.922Z,102178.44
2023-01-29T16:02:06.712Z,102154.19
2023-01-29T16:32:49.983Z,102125.50
2023-01-29T16:42:51.654Z,102131.56
2023-01-29T17:13:34.981Z,102112.47
2023-01-29T17:34:05.096Z,102104.69
2023-01-29T17:44:06.436Z,102095.16
2023-01-29T18:14:57.615Z,102068.13
2023-01-29T18:24:59.238Z,102078.69
2023-01-29T18:35:00.612Z,102062.16
2023-01-29T18:45:01.908Z,102041.28
2023-01-29T18:55:03.248Z,102021.19
2023-01-29T19:05:04.539Z,102029.97
2023-01-29T19:25:21.942Z,101965.53
2023-01-29T19:35:23.265Z,101947.25
2023-01-29T19:45:49.049Z,101932.53
2023-01-29T19:55:46.934Z,101919.44
2023-01-29T20:05:53.356Z,101883.75
2023-01-29T20:15:54.779Z,101911.66
2023-01-29T20:25:56.203Z,101909.78
2023-01-29T20:35:59.136Z,101901.88
2023-01-29T20:46:00.472Z,101901.88
2023-01-29T20:56:04.223Z,101875.75
2023-01-29T21:06:05.766Z,101887.06
2023-01-29T21:16:07.139Z,101879.97
2023-01-29T21:26:08.737Z,101889.59
2023-01-29T21:36:10.220Z,101871.28
2023-01-29T21:46:11.805Z,101865.00
2023-01-29T21:56:13.408Z,101885.84
2023-01-29T22:06:14.742Z,101878.81
2023-01-29T22:16:16.133Z,101806.47
2023-01-29T22:26:17.461Z,101776.81
2023-01-29T22:36:18.747Z,101733.16
2023-01-29T22:46:20.080Z,101773.19
2023-01-29T22:56:21.410Z,101758.31
2023-01-29T23:06:22.704Z,101745.16
2023-01-29T23:16:26.769Z,101706.00
2023-01-29T23:26:29.229Z,101718.13
2023-01-29T23:36:30.590Z,101704.94
2023-01-29T23:46:31.915Z,101683.97
2023-01-29T23:56:33.359Z,101663.88
